Terminal Aerodrome Forecast
Issued by NWS

Home | Current Version | Previous Version | Text Only | Print | Product List | Glossary On
Versions: 1 2 3 4 5 6 7 8 9 10 11 12 13 14 15 16 17 18 19 20 21 22 23 24 25 26
000
FTPA31 PHFO 271700
TAFLNY
TAF
PHNY 271728Z 2718/2818 35007KT P6SM FEW030
     FM271930 35008KT P6SM BKN035
     FM272200 35017KT P6SM SCT030
     FM280500 01010KT P6SM FEW030
      AMD NOT SKED=

USA.gov is the U.S. government's official web portal to all federal, state and local government web resources and services.